createdAt,value
2023-07-24T00:02:17.709Z,18.98
2023-07-24T00:07:21.620Z,18.88
2023-07-24T00:12:27.442Z,18.97
2023-07-24T00:17:36.822Z,18.97
2023-07-24T00:22:42.452Z,18.98
2023-07-24T00:27:50.909Z,18.97
2023-07-24T00:32:54.909Z,18.92
2023-07-24T00:38:03.183Z,18.91
2023-07-24T00:43:08.265Z,18.66
2023-07-24T00:48:12.275Z,18.89
2023-07-24T00:53:17.198Z,18.85
2023-07-24T00:58:22.196Z,18.83
2023-07-24T01:03:33.868Z,18.87
2023-07-24T01:08:37.011Z,18.85
2023-07-24T01:13:47.350Z,18.80
2023-07-24T01:18:53.514Z,18.76
2023-07-24T01:24:05.464Z,18.76
2023-07-24T01:29:09.894Z,18.75
2023-07-24T01:34:12.933Z,18.70
2023-07-24T01:39:17.429Z,18.67
2023-07-24T01:44:21.917Z,18.67
2023-07-24T01:49:25.229Z,18.65
2023-07-24T01:54:28.650Z,18.59
2023-07-24T01:59:33.043Z,18.61
2023-07-24T02:04:36.223Z,18.62
2023-07-24T02:09:40.408Z,18.63
2023-07-24T02:14:44.902Z,18.62
2023-07-24T02:19:48.223Z,18.57
2023-07-24T02:24:51.326Z,18.54
2023-07-24T02:29:56.238Z,18.52
2023-07-24T02:34:59.366Z,18.50
2023-07-24T02:40:02.387Z,18.46
2023-07-24T02:45:12.019Z,18.41
2023-07-24T02:50:15.431Z,18.42
2023-07-24T02:55:18.542Z,18.43
2023-07-24T03:00:23.093Z,18.44
2023-07-24T03:05:26.341Z,18.43
2023-07-24T03:10:29.789Z,18.47
2023-07-24T03:15:34.475Z,18.44
2023-07-24T03:20:37.564Z,18.42
2023-07-24T03:25:40.942Z,18.42
2023-07-24T03:30:45.502Z,18.33
2023-07-24T03:35:49.411Z,18.12
2023-07-24T03:40:52.401Z,17.99
2023-07-24T03:45:56.867Z,17.87
2023-07-24T03:51:01.257Z,17.80
2023-07-24T03:56:04.424Z,17.87
2023-07-24T04:01:09.074Z,17.86
2023-07-24T04:06:12.379Z,17.88
2023-07-24T04:11:15.478Z,17.94
2023-07-24T04:16:20.305Z,17.99
2023-07-24T04:21:24.696Z,18.00
2023-07-24T04:26:28.048Z,18.00
2023-07-24T04:31:32.624Z,17.99
2023-07-24T04:36:35.673Z,17.87
2023-07-24T04:41:38.925Z,17.99
2023-07-24T04:46:43.629Z,17.95
2023-07-24T04:51:46.832Z,17.91
2023-07-24T04:56:49.868Z,17.88
2023-07-24T05:01:54.399Z,17.96
2023-07-24T05:06:57.930Z,18.01
2023-07-24T05:12:01.129Z,18.04
2023-07-24T05:17:06.281Z,18.08
2023-07-24T05:22:11.375Z,18.07
2023-07-24T05:27:16.998Z,18.13
2023-07-24T05:32:21.605Z,18.18
2023-07-24T05:37:24.689Z,18.20
2023-07-24T05:42:27.825Z,18.30
2023-07-24T05:47:32.373Z,18.48
2023-07-24T05:52:35.500Z,18.50
2023-07-24T05:57:38.973Z,18.59
2023-07-24T06:02:43.447Z,18.50
2023-07-24T06:07:46.632Z,18.51
2023-07-24T06:12:49.779Z,18.46
2023-07-24T06:17:54.896Z,18.73
2023-07-24T06:22:58.243Z,18.83
2023-07-24T06:28:01.531Z,18.92
2023-07-24T06:33:06.191Z,18.85
2023-07-24T06:38:09.982Z,18.95
2023-07-24T06:43:13.163Z,19.07
2023-07-24T06:48:17.592Z,19.38
2023-07-24T06:53:20.649Z,19.53
2023-07-24T06:58:23.869Z,19.60
2023-07-24T07:03:28.426Z,19.08
2023-07-24T07:08:32.302Z,18.52
2023-07-24T07:13:35.396Z,18.43
2023-07-24T07:18:42.199Z,18.48
2023-07-24T07:23:47.309Z,18.34
2023-07-24T07:28:50.697Z,18.57
2023-07-24T07:33:55.142Z,18.97
2023-07-24T07:38:58.396Z,19.36
2023-07-24T07:44:01.489Z,19.54
2023-07-24T07:49:06.202Z,19.71
2023-07-24T07:54:09.309Z,19.72
2023-07-24T07:59:12.377Z,19.85
2023-07-24T08:04:18.598Z,19.84
2023-07-24T08:09:22.709Z,19.64
2023-07-24T08:14:25.908Z,19.78
2023-07-24T08:19:31.890Z,20.14
2023-07-24T08:24:36.708Z,20.05
2023-07-24T08:29:39.957Z,19.95
2023-07-24T08:34:44.393Z,19.85
2023-07-24T08:39:47.666Z,20.05
2023-07-24T08:44:51.253Z,20.19
2023-07-24T08:49:56.869Z,20.06
2023-07-24T08:55:02.402Z,19.95
2023-07-24T09:00:06.468Z,19.94
2023-07-24T09:05:12.798Z,19.93
2023-07-24T09:10:16.936Z,20.00
2023-07-24T09:15:20.298Z,20.21
2023-07-24T09:25:34.964Z,20.67
2023-07-24T09:30:39.341Z,21.05
2023-07-24T09:35:43.755Z,21.48
2023-07-24T09:40:48.533Z,21.62
2023-07-24T09:45:52.708Z,21.43
2023-07-24T09:50:58.409Z,20.70
2023-07-24T09:56:04.365Z,20.03
2023-07-24T10:01:08.936Z,19.91
2023-07-24T10:06:15.971Z,20.07
2023-07-24T10:11:19.710Z,20.17
2023-07-24T10:16:23.042Z,20.28
2023-07-24T10:21:30.627Z,20.72
2023-07-24T10:26:37.199Z,20.67
2023-07-24T10:31:40.568Z,20.83
2023-07-24T10:36:45.087Z,21.19
2023-07-24T10:41:48.271Z,21.49
2023-07-24T10:46:51.356Z,22.04
2023-07-24T10:51:59.016Z,22.02
2023-07-24T10:57:02.586Z,22.00
2023-07-24T11:02:06.546Z,21.83
2023-07-24T11:07:11.074Z,21.67
2023-07-24T11:12:18.900Z,21.75
2023-07-24T11:17:22.207Z,21.65
2023-07-24T11:22:28.259Z,21.24
2023-07-24T11:27:31.286Z,20.94
2023-07-24T11:32:34.379Z,20.92
2023-07-24T11:37:38.976Z,20.47
2023-07-24T11:42:44.794Z,20.52
2023-07-24T11:47:49.623Z,21.10
2023-07-24T11:52:55.070Z,21.76
2023-07-24T11:57:58.962Z,22.26
2023-07-24T12:03:05.928Z,22.59
2023-07-24T12:08:10.908Z,22.68
2023-07-24T12:13:14.710Z,22.13
2023-07-24T12:18:17.949Z,21.70
2023-07-24T12:23:22.349Z,21.77
2023-07-24T12:28:25.476Z,21.87
2023-07-24T12:33:28.495Z,21.96
2023-07-24T12:38:33.079Z,22.45
2023-07-24T12:43:36.098Z,23.03
2023-07-24T12:48:39.187Z,22.97
2023-07-24T12:53:48.597Z,22.86
2023-07-24T12:59:07.629Z,23.17
2023-07-24T13:04:10.728Z,23.44
2023-07-24T13:09:15.365Z,23.71
2023-07-24T13:14:18.581Z,23.72
2023-07-24T13:19:21.879Z,24.13
2023-07-24T13:24:26.459Z,24.17
2023-07-24T13:29:29.543Z,23.84
2023-07-24T13:34:32.637Z,23.81
2023-07-24T13:39:37.882Z,24.10
2023-07-24T13:44:40.896Z,23.94
2023-07-24T13:49:44.029Z,23.88
2023-07-24T13:54:48.459Z,23.79
2023-07-24T13:59:51.648Z,23.34
2023-07-24T14:04:55.643Z,23.29
2023-07-24T14:10:00.484Z,22.97
2023-07-24T14:15:03.786Z,22.71
2023-07-24T14:20:08.076Z,22.34
2023-07-24T14:25:12.544Z,21.17
2023-07-24T14:30:15.830Z,21.45
2023-07-24T14:35:20.786Z,22.19
2023-07-24T14:40:25.271Z,22.11
2023-07-24T14:45:28.617Z,22.38
2023-07-24T14:50:31.756Z,22.13
2023-07-24T14:55:36.439Z,22.25
2023-07-24T15:00:39.687Z,22.22
2023-07-24T15:05:42.884Z,22.46
2023-07-24T15:10:47.440Z,22.92
2023-07-24T15:15:50.754Z,22.26
2023-07-24T15:20:54.789Z,22.10
2023-07-24T15:25:59.349Z,21.94
2023-07-24T15:31:02.569Z,21.98
2023-07-24T15:36:06.219Z,22.04
2023-07-24T15:41:10.711Z,22.23
2023-07-24T15:46:16.765Z,22.09
2023-07-24T15:51:21.372Z,21.59
2023-07-24T15:56:26.424Z,21.63
2023-07-24T16:01:30.091Z,21.25
2023-07-24T16:06:33.812Z,21.12
2023-07-24T16:11:38.309Z,21.05
2023-07-24T16:16:41.601Z,20.95
2023-07-24T16:21:46.880Z,20.49
2023-07-24T16:26:51.554Z,19.96
2023-07-24T16:31:54.971Z,19.60
2023-07-24T16:36:58.106Z,19.59
2023-07-24T16:42:02.485Z,19.51
2023-07-24T16:52:11.980Z,19.82
2023-07-24T16:57:16.590Z,19.72
2023-07-24T17:02:19.741Z,19.87
2023-07-24T17:07:22.932Z,19.61
2023-07-24T17:12:27.480Z,19.63
2023-07-24T17:17:31.543Z,19.75
2023-07-24T17:22:34.647Z,20.11
2023-07-24T17:27:39.620Z,20.34
2023-07-24T17:32:42.812Z,20.08
2023-07-24T17:37:46.157Z,19.89
2023-07-24T17:42:52.454Z,20.15
2023-07-24T17:47:55.679Z,20.28
2023-07-24T17:52:58.837Z,20.08
2023-07-24T17:58:03.329Z,19.74
2023-07-24T18:03:06.496Z,19.55
2023-07-24T18:08:09.837Z,19.49
2023-07-24T18:13:14.645Z,19.43
2023-07-24T18:18:17.814Z,19.39
2023-07-24T18:23:21.012Z,19.34
2023-07-24T18:28:25.467Z,19.12
2023-07-24T18:33:28.574Z,19.02
2023-07-24T18:38:31.634Z,19.01
2023-07-24T18:43:36.201Z,18.90
2023-07-24T18:48:39.412Z,18.67
2023-07-24T18:53:42.705Z,18.47
2023-07-24T18:58:49.766Z,18.10
2023-07-24T19:03:53.151Z,18.01
2023-07-24T19:08:56.391Z,17.82
2023-07-24T19:14:00.888Z,17.82
2023-07-24T19:19:06.798Z,17.73
2023-07-24T19:24:10.549Z,17.62
2023-07-24T19:29:15.138Z,17.74
2023-07-24T19:34:18.324Z,17.74
2023-07-24T19:39:21.596Z,17.74
2023-07-24T19:44:26.106Z,17.63
2023-07-24T19:49:31.083Z,17.54
2023-07-24T19:54:34.249Z,17.42
2023-07-24T19:59:38.816Z,17.46
2023-07-24T20:04:42.028Z,17.45
2023-07-24T20:09:45.471Z,17.37
2023-07-24T20:14:49.947Z,17.20
2023-07-24T20:19:53.105Z,17.17
2023-07-24T20:24:56.331Z,16.98
2023-07-24T20:30:02.502Z,16.95
2023-07-24T20:35:06.257Z,17.01
2023-07-24T20:40:11.079Z,16.94
2023-07-24T20:45:15.849Z,16.84
2023-07-24T20:50:19.120Z,16.75
2023-07-24T20:55:22.305Z,16.69
2023-07-24T21:00:26.917Z,16.66
2023-07-24T21:05:30.511Z,16.64
2023-07-24T21:10:33.804Z,16.57
2023-07-24T21:15:38.558Z,16.48
2023-07-24T21:20:42.936Z,16.42
2023-07-24T21:25:54.796Z,16.32
2023-07-24T21:31:08.170Z,16.11
2023-07-24T21:36:11.267Z,16.09
2023-07-24T21:41:14.664Z,16.08
2023-07-24T21:46:19.232Z,15.97
2023-07-24T21:51:22.573Z,15.96
2023-07-24T21:56:25.676Z,15.92
2023-07-24T22:01:30.807Z,15.80
2023-07-24T22:06:34.703Z,15.64
2023-07-24T22:11:37.996Z,15.59
2023-07-24T22:16:42.734Z,15.46
2023-07-24T22:21:45.959Z,15.43
2023-07-24T22:26:49.011Z,15.40
2023-07-24T22:31:53.528Z,15.41
2023-07-24T22:36:56.531Z,15.35
2023-07-24T22:42:00.547Z,15.31
2023-07-24T22:47:05.666Z,15.31
2023-07-24T22:52:09.311Z,15.25
2023-07-24T22:57:12.364Z,15.20
2023-07-24T23:02:16.870Z,15.12
2023-07-24T23:07:20.037Z,15.09
2023-07-24T23:12:23.065Z,15.05
2023-07-24T23:17:27.541Z,14.94
2023-07-24T23:22:30.737Z,14.89
2023-07-24T23:27:33.857Z,14.87
2023-07-24T23:32:38.327Z,14.84
2023-07-24T23:37:41.378Z,14.78
2023-07-24T23:42:44.472Z,14.71
2023-07-24T23:47:49.030Z,14.70
2023-07-24T23:52:52.170Z,14.70
2023-07-24T23:57:55.217Z,14.67
